createdAt,value
2018-08-10T18:43:57.178Z,5.52
2018-08-10T18:43:57.270Z,11
2018-08-10T18:43:57.321Z,9.54
2018-08-10T18:43:57.359Z,11.46
2018-08-10T18:43:57.443Z,9.95
2018-08-10T18:43:57.548Z,10.58
2018-08-10T18:43:57.609Z,10.96
2018-08-10T18:43:57.657Z,11.85
2018-08-10T18:43:57.733Z,11.16
2018-08-10T18:43:57.850Z,10.96
2018-08-10T18:43:57.894Z,12.24
2018-08-10T18:43:57.981Z,10.51
2018-08-10T18:43:58.015Z,11.32
2018-08-10T18:43:58.082Z,12.51
2018-08-10T18:43:58.127Z,9.8
2018-08-10T18:43:58.212Z,10.48
2018-08-10T18:43:58.265Z,11.59
2018-08-10T18:43:58.306Z,10.5
2018-08-10T18:43:58.381Z,10.79
2018-08-10T18:43:58.450Z,10.45
2018-08-10T18:43:58.499Z,10.55
2018-08-10T18:43:58.618Z,11.12
2018-08-10T18:43:58.685Z,11.6
2018-08-10T18:43:58.743Z,9.25
2018-08-10T18:43:58.777Z,10.27
2018-08-10T18:43:58.861Z,10.5
2018-08-10T18:43:58.928Z,10.17
2018-08-10T18:43:58.967Z,10.9
2018-08-10T18:43:59.049Z,13.58
2018-08-10T18:43:59.096Z,10.61
2018-08-10T18:43:59.158Z,9.97
2018-08-10T18:43:59.213Z,9.5
2018-08-10T18:43:59.273Z,10.77
2018-08-10T18:43:59.320Z,10.87
2018-08-10T18:43:59.421Z,9.4
2018-08-10T18:43:59.490Z,11.71
2018-08-10T18:43:59.546Z,11.33
2018-08-10T18:43:59.612Z,11.48
2018-08-10T18:43:59.672Z,9.79
2018-08-10T18:43:59.713Z,10.66
2018-08-10T18:43:59.791Z,11.61
2018-08-10T18:43:59.904Z,12.01
2018-08-10T18:43:59.972Z,11.83
2018-08-10T18:44:00.019Z,10.83
2018-08-10T18:44:00.080Z,11.95
2018-08-10T18:44:00.142Z,11.39
2018-08-10T18:44:00.243Z,10.24
2018-08-10T18:44:00.299Z,12.74
2018-08-10T18:44:00.360Z,11.8
2018-08-10T18:44:00.405Z,10.25
2018-08-10T18:44:00.475Z,11.35
2018-08-10T18:44:00.560Z,11.18
2018-08-10T18:44:00.610Z,11.14
2018-08-10T18:44:00.673Z,11.99
2018-08-10T18:44:00.746Z,10.89
2018-08-10T18:44:00.825Z,13.47
2018-08-10T18:44:00.920Z,11.53
2018-08-10T18:44:01.014Z,10.97
2018-08-10T18:44:01.091Z,10.43
2018-08-10T18:44:01.156Z,11.53
2018-08-10T18:44:01.202Z,14.93
2018-08-10T18:44:01.260Z,9.9
2018-08-10T18:44:01.329Z,10.41
2018-08-10T18:44:01.384Z,13.57
2018-08-10T18:44:01.447Z,18.01
2018-08-10T18:44:01.494Z,17.6
2018-08-10T18:44:01.578Z,16.25
2018-08-10T18:44:01.628Z,13.96
2018-08-10T18:44:01.715Z,14.86
2018-08-10T18:44:01.772Z,15.03
2018-08-10T18:44:01.857Z,12.01
2018-08-10T18:44:01.971Z,14.24
2018-08-10T18:44:02.096Z,12.61
2018-08-10T18:44:02.126Z,13.96
2018-08-10T18:44:02.200Z,14.5
2018-08-10T18:44:02.276Z,14.08
2018-08-10T18:44:02.325Z,12.85
2018-08-10T18:44:02.406Z,14.55
2018-08-10T18:44:02.438Z,12.96
2018-08-10T18:44:02.504Z,13.1
2018-08-10T18:44:02.556Z,13.8
2018-08-10T18:44:02.635Z,11.36
2018-08-10T18:44:02.696Z,12.47
2018-08-10T18:44:02.747Z,11.29
2018-08-10T18:44:02.892Z,12.47
2018-08-10T18:44:02.920Z,11.78
2018-08-10T18:44:02.992Z,13.95
2018-08-10T18:44:03.247Z,13.75
2018-08-10T18:44:03.299Z,13.95
2018-08-10T18:44:03.361Z,11.14
2018-08-10T18:44:03.428Z,13.2
2018-08-10T18:44:03.516Z,14.31
2018-08-10T18:44:03.536Z,12.22
2018-08-10T18:44:03.629Z,10.98
2018-08-10T18:44:03.701Z,13.37
2018-08-10T18:44:03.779Z,8.8
2018-08-10T18:44:03.856Z,10.17
2018-08-10T18:44:03.910Z,10.27
2018-08-10T18:44:03.981Z,10.73
2018-08-10T18:44:04.025Z,10.66
2018-08-10T18:44:04.077Z,11.14
2018-08-10T18:44:04.161Z,13.01
2018-08-10T18:44:04.237Z,9.05
2018-08-10T18:44:04.316Z,11.45
2018-08-10T18:44:04.425Z,9.97
2018-08-10T18:44:04.530Z,10.86
2018-08-10T18:44:04.576Z,9.97
2018-08-10T18:44:04.626Z,10.86
2018-08-10T18:44:04.703Z,9.16
2018-08-10T18:44:04.757Z,8.58
2018-08-10T18:44:04.817Z,9.11
2018-08-10T18:44:04.878Z,8.97
2018-08-10T18:44:04.944Z,9.58
2018-08-10T18:44:05.028Z,9.07
2018-08-10T18:44:05.060Z,9.3
2018-08-10T18:44:05.132Z,7.77
2018-08-10T18:44:05.208Z,7.45
2018-08-10T18:44:05.317Z,7.22
2018-08-10T18:44:05.412Z,7.74
2018-08-10T18:44:05.481Z,6.93
2018-08-10T18:44:05.536Z,7.54
2018-08-10T18:44:05.589Z,8.53
2018-08-10T18:44:05.668Z,7.99
2018-08-10T18:44:05.740Z,8.37
2018-08-10T18:44:05.787Z,7.95
2018-08-10T18:44:05.860Z,7.79
2018-08-10T18:44:05.934Z,7.19
2018-08-10T18:44:05.997Z,8.56
2018-08-10T18:44:06.048Z,8.88
2018-08-10T18:44:06.099Z,9.03
2018-08-10T18:44:06.233Z,9.07
2018-08-10T18:44:06.279Z,8.7
2018-08-10T18:44:06.322Z,7.61
2018-08-10T18:44:06.375Z,8.3
2018-08-10T18:44:06.463Z,7.6
2018-08-10T18:44:06.503Z,7.28
2018-08-10T18:44:06.589Z,7.12
2018-08-10T18:44:06.650Z,6.47
2018-08-10T18:44:06.691Z,10.48
2018-08-10T18:44:06.755Z,8.55
2018-08-10T18:44:06.817Z,7.73
2018-08-10T18:44:06.886Z,5.79
2018-08-10T18:44:07.007Z,6.96
2018-08-10T18:44:07.065Z,6.49
2018-08-10T18:44:07.117Z,6.37
2018-08-10T18:44:07.193Z,6.27
2018-08-10T18:44:07.263Z,8.02
2018-08-10T18:44:07.321Z,8.82
2018-08-10T18:44:07.385Z,9.16
2018-08-10T18:44:07.459Z,6.9
2018-08-10T18:44:07.536Z,8.52
2018-08-10T18:44:07.578Z,7.68
2018-08-10T18:44:07.671Z,6.8
2018-08-10T18:44:07.731Z,7.92
2018-08-10T18:44:07.808Z,7.77
2018-08-10T18:44:07.882Z,7.39
2018-08-10T18:44:07.935Z,6.48
2018-08-10T18:44:08.015Z,6.57
2018-08-10T18:44:08.098Z,7.26
2018-08-10T18:44:08.138Z,9.53
2018-08-10T18:44:08.217Z,7.53
2018-08-10T18:44:08.260Z,7.9
2018-08-10T18:44:08.361Z,9.04
2018-08-10T18:44:08.379Z,9.19
2018-08-10T18:44:08.519Z,7.27
2018-08-10T18:44:08.537Z,8.33
2018-08-10T18:44:08.635Z,7.7
2018-08-10T18:44:08.732Z,8.65
2018-08-10T18:44:08.777Z,7.3
2018-08-10T18:44:08.851Z,7.72
2018-08-10T18:44:08.907Z,7.53
2018-08-10T18:44:08.971Z,8.16
2018-08-10T18:44:09.032Z,7.98
2018-08-10T18:44:09.115Z,8.92
2018-08-10T18:44:09.158Z,7.98
2018-08-10T18:44:09.253Z,9.3
2018-08-10T18:44:09.284Z,10.07
2018-08-10T18:44:09.393Z,8.99
2018-08-10T18:44:09.450Z,10.46
2018-08-10T18:44:09.532Z,11.15
2018-08-10T18:44:09.625Z,9.81
2018-08-10T18:44:09.646Z,10.42
2018-08-10T18:44:09.722Z,8.77
2018-08-10T18:44:09.787Z,10.2
2018-08-10T18:44:09.820Z,10.45
2018-08-10T18:44:09.891Z,9.88
2018-08-10T18:44:09.930Z,10.89
2018-08-10T18:44:10.004Z,9.83
2018-08-10T18:44:10.089Z,12.54
2018-08-10T18:44:10.129Z,11.82
2018-08-10T18:44:10.242Z,12.47
2018-08-10T18:44:10.280Z,11.77
2018-08-10T18:44:10.376Z,13.56
2018-08-10T18:44:10.413Z,12.03
2018-08-10T18:44:10.476Z,13.82
2018-08-10T18:44:10.564Z,14.31
2018-08-10T18:44:10.756Z,12.85
2018-08-10T18:44:10.881Z,13.82
2018-08-10T18:44:10.926Z,13.82
2018-08-10T18:44:11.039Z,12.63
2018-08-10T18:44:11.101Z,13.29
2018-08-10T18:44:11.161Z,11.34
2018-08-10T18:44:11.234Z,11.96
2018-08-10T18:44:11.280Z,12.07
2018-08-10T18:44:11.353Z,11.32
2018-08-10T18:44:11.416Z,10.77
2018-08-10T18:44:11.480Z,12.9
2018-08-10T18:44:11.530Z,11.32
2018-08-10T18:44:11.584Z,11.12
2018-08-10T18:44:11.650Z,11.77
2018-08-10T18:44:11.720Z,10.94
2018-08-10T18:44:11.806Z,9.71
2018-08-10T18:44:11.933Z,11.03
2018-08-10T18:44:11.996Z,9.57
2018-08-10T18:44:12.091Z,11.66
2018-08-10T18:44:12.164Z,9.81
2018-08-10T18:44:12.228Z,11.28
2018-08-10T18:44:12.284Z,9.34
2018-08-10T18:44:12.336Z,9.51
2018-08-10T18:44:12.394Z,8.7
2018-08-10T18:44:12.473Z,10.25
2018-08-10T18:44:12.529Z,9.27
2018-08-10T18:44:12.610Z,9.9
2018-08-10T18:44:12.713Z,11.04
2018-08-10T18:44:12.791Z,8.21
2018-08-10T18:44:12.884Z,10.17
2018-08-10T18:44:12.979Z,10.48
2018-08-10T18:44:13.060Z,10.39
2018-08-10T18:44:13.096Z,9.99
2018-08-10T18:44:13.142Z,10
2018-08-10T18:44:13.210Z,11.21
2018-08-10T18:44:13.300Z,8.44
2018-08-10T18:44:13.335Z,9.98
2018-08-10T18:44:13.394Z,10.75
2018-08-10T18:44:13.475Z,13.08
2018-08-10T18:44:13.530Z,11.28
2018-08-10T18:44:13.598Z,14.97
2018-08-10T18:44:13.691Z,12.26
2018-08-10T18:44:13.737Z,11.06
2018-08-10T18:44:13.801Z,10.12
2018-08-10T18:44:13.886Z,12.41
2018-08-10T18:44:13.955Z,10.98
2018-08-10T18:44:13.992Z,11.94
2018-08-10T18:44:14.070Z,10.69
2018-08-10T18:44:14.121Z,11.39
2018-08-10T18:44:14.175Z,10.59
2018-08-10T18:44:14.236Z,12.37
2018-08-10T18:44:14.298Z,13.13
2018-08-10T18:44:14.351Z,12.96
2018-08-10T18:44:14.465Z,12.87
2018-08-10T18:44:14.576Z,13.81
2018-08-10T18:44:14.646Z,12.14
2018-08-10T18:44:14.723Z,10.84
2018-08-10T18:44:14.816Z,13.98
2018-08-10T18:44:14.988Z,13.14
2018-08-10T18:44:15.089Z,13.35
2018-08-10T18:44:15.150Z,12.4
2018-08-10T18:44:15.218Z,12.77
2018-08-10T18:44:15.300Z,15.11
2018-08-10T18:44:15.350Z,13.29
2018-08-10T18:44:15.389Z,14.2
2018-08-10T18:44:15.464Z,12.62
2018-08-10T18:44:15.524Z,13.33
2018-08-10T18:44:15.580Z,12.24
2018-08-10T18:44:15.664Z,10.97
2018-08-10T18:44:15.734Z,11.89
2018-08-10T18:44:15.777Z,12.84
2018-08-10T18:44:15.882Z,12.89
2018-08-10T18:44:15.959Z,13.64
2018-08-10T18:44:16.055Z,11.71
2018-08-10T18:44:16.284Z,12.4
2018-08-10T18:44:16.326Z,12.61
2018-08-10T18:44:16.411Z,12.49
2018-08-10T18:44:16.449Z,11.33
2018-08-10T18:44:16.519Z,13.24
2018-08-10T18:44:16.577Z,11.91
2018-08-10T18:44:16.659Z,13.38
2018-08-10T18:44:16.749Z,11.68
2018-08-10T18:44:16.860Z,13.37
2018-08-10T18:44:16.962Z,14.17
2018-08-10T18:44:17.012Z,11.66
2018-08-10T18:44:17.070Z,13.85
2018-08-10T18:44:17.153Z,15.61
2018-08-10T18:44:17.197Z,12.64
2018-08-10T18:44:17.281Z,14.35
2018-08-10T18:44:17.314Z,13.95
2018-08-10T18:44:17.389Z,16.38
2018-08-10T18:44:17.441Z,13.8
2018-08-10T18:44:17.504Z,15.83
2018-08-10T18:44:17.564Z,12.83
2018-08-10T18:44:17.616Z,13.59
2018-08-10T18:44:17.727Z,15.57
2018-08-10T18:44:17.794Z,13.74
2018-08-10T18:44:17.879Z,17.39
2018-08-10T18:44:17.934Z,13.03
2018-08-10T18:44:17.960Z,15.41
2018-08-10T18:44:18.047Z,15.25
2018-08-10T18:44:18.112Z,13.18
2018-08-10T18:44:18.170Z,12.67
2018-08-10T18:44:18.226Z,13.13
2018-08-10T18:44:18.283Z,12.48
2018-08-10T18:44:18.355Z,14.29
2018-08-10T18:44:18.399Z,15.24
2018-08-10T18:44:18.469Z,14.86
2018-08-10T18:44:18.627Z,15.27
2018-08-10T18:44:18.704Z,13.99
2018-08-10T18:44:18.733Z,13.51
2018-08-10T18:44:18.794Z,13.84
2018-08-10T18:44:18.864Z,16.5
2018-08-10T18:44:18.909Z,16.3
2018-08-10T18:44:18.969Z,15.57
2018-08-10T18:44:19.031Z,16.48
2018-08-10T18:44:19.096Z,17.78
2018-08-10T18:44:19.174Z,14.88
2018-08-10T18:44:19.202Z,15.3
2018-08-10T18:44:19.270Z,15.57
2018-08-10T18:44:19.347Z,14.3
2018-08-10T18:44:19.458Z,16.52
2018-08-10T18:44:19.537Z,28.27
2018-08-10T18:44:19.580Z,17.41
2018-08-10T18:44:19.631Z,15.67
2018-08-10T18:44:19.703Z,17.06
2018-08-10T18:44:19.774Z,17.46
2018-08-10T18:44:19.824Z,15.22
2018-08-10T18:44:19.885Z,16.21
2018-08-10T18:44:19.932Z,14.88
2018-08-10T18:44:20.000Z,14.57
2018-08-10T18:44:20.049Z,17.55
2018-08-10T18:44:20.121Z,15.21
2018-08-10T18:44:20.242Z,15.27
2018-08-10T18:44:20.331Z,16.01
2018-08-10T18:44:20.420Z,15.76
2018-08-10T18:44:20.447Z,16.26
2018-08-10T18:44:20.541Z,16.9
2018-08-10T18:44:20.574Z,15.86
2018-08-10T18:44:20.646Z,15.62
2018-08-10T18:44:20.718Z,15.36
2018-08-10T18:44:20.766Z,17.26
2018-08-10T18:44:20.855Z,17.75
2018-08-10T18:44:20.929Z,16.55
2018-08-10T18:44:20.977Z,17.33
2018-08-10T18:44:21.037Z,16.49
2018-08-10T18:44:21.126Z,20.03
2018-08-10T18:44:21.248Z,16.71
2018-08-10T18:44:21.327Z,19.1
2018-08-10T18:44:21.417Z,19.38
2018-08-10T18:44:21.532Z,17.68
2018-08-10T18:44:21.618Z,34.44
2018-08-10T18:44:21.725Z,29.79
2018-08-10T18:44:21.765Z,17.7
2018-08-10T18:44:21.853Z,19.93
2018-08-10T18:44:21.911Z,21.54
2018-08-10T18:44:21.975Z,21.76
2018-08-10T18:44:22.014Z,16.46
2018-08-10T18:44:22.064Z,16.17
2018-08-10T18:44:22.143Z,17.09
2018-08-10T18:44:22.206Z,16.43
2018-08-10T18:44:22.260Z,15.95
2018-08-10T18:44:22.337Z,12.64
2018-08-10T18:44:22.439Z,16.98
2018-08-10T18:44:22.513Z,15.01
2018-08-10T18:44:22.552Z,16.2
2018-08-10T18:44:22.606Z,17.46
2018-08-10T18:44:22.696Z,15.49
2018-08-10T18:44:22.734Z,17.32
2018-08-10T18:44:22.791Z,19.65
2018-08-10T18:44:22.877Z,20.01
2018-08-10T18:44:23.160Z,18.34
2018-08-10T18:44:23.221Z,21.81
2018-08-10T18:44:23.296Z,16.41
2018-08-10T18:44:23.426Z,17.65
2018-08-10T18:44:23.459Z,17.57
2018-08-10T18:44:23.516Z,17.03
2018-08-10T18:44:23.622Z,19.98
2018-08-10T18:44:23.663Z,16.67
2018-08-10T18:44:23.718Z,15.73
2018-08-10T18:44:23.778Z,18.13
2018-08-10T18:44:23.842Z,18.01
2018-08-10T18:44:23.903Z,17.62
2018-08-10T18:44:23.976Z,17.55
2018-08-10T18:44:24.014Z,16.22
2018-08-10T18:44:24.070Z,17.25
2018-08-10T18:44:24.159Z,19.64
2018-08-10T18:44:24.271Z,15.89
2018-08-10T18:44:24.388Z,16.59
2018-08-10T18:44:24.485Z,18.22
2018-08-10T18:44:24.567Z,16.38
2018-08-10T18:44:24.673Z,18.18
2018-08-10T18:44:24.790Z,18.61
2018-08-10T18:44:24.923Z,17.85
2018-08-10T18:44:26.018Z,18.59
2018-08-10T18:44:26.101Z,18.7
2018-08-10T18:44:26.203Z,17.1
2018-08-10T18:44:26.253Z,17.05
2018-08-10T18:44:26.333Z,18.89
2018-08-10T18:44:26.390Z,15.78
2018-08-10T18:44:26.454Z,16.91
2018-08-10T18:44:32.043Z,16.09
2018-08-10T18:44:32.181Z,17.83
2018-08-10T18:44:32.238Z,16.95
2018-08-10T18:44:32.399Z,14.75
2018-08-10T18:44:32.491Z,16.51
2018-08-10T18:44:32.549Z,14.7
2018-08-10T18:44:32.631Z,15.67
2018-08-10T18:44:32.685Z,16.61
2018-08-10T18:44:32.817Z,16.93
2018-08-10T18:44:32.865Z,16.87
2018-08-10T18:44:32.930Z,16.1
2018-08-10T18:44:32.989Z,16.66
2018-08-10T18:44:33.075Z,17.21
2018-08-10T18:44:33.109Z,16.78
2018-08-10T18:44:33.195Z,17.56
2018-08-10T18:44:33.262Z,15.17
2018-08-10T18:44:33.352Z,17.32
2018-08-10T18:44:33.441Z,16.27
2018-08-10T18:44:33.517Z,17.96
2018-08-10T18:44:33.610Z,16.09
2018-08-10T18:44:33.648Z,15.61
2018-08-10T18:44:33.714Z,15.61
2018-08-10T18:44:33.786Z,15.18
2018-08-10T18:44:33.882Z,16.84
2018-08-10T18:44:33.913Z,15.16
2018-08-10T18:44:33.964Z,16.91
2018-08-10T18:44:34.031Z,14.1
2018-08-10T18:44:34.109Z,16.53
2018-08-10T18:44:34.153Z,15.44
2018-08-10T18:44:34.256Z,15.27
2018-08-10T18:44:34.320Z,15.72
2018-08-10T18:44:34.388Z,13.42
2018-08-10T18:44:34.443Z,14.74
2018-08-10T18:44:34.511Z,15.27
2018-08-10T18:44:34.594Z,13.3
2018-08-10T18:44:34.623Z,16.71
2018-08-10T18:44:34.681Z,15.11
2018-08-10T18:44:34.755Z,16.28
2018-08-10T18:44:34.835Z,13.35
2018-08-10T18:44:34.869Z,14.39
2018-08-10T18:44:34.925Z,10.8
2018-08-10T18:44:35.046Z,12.3
2018-08-10T18:44:35.085Z,11.28
2018-08-10T18:44:35.183Z,11.94
2018-08-10T18:44:35.211Z,14
2018-08-10T18:44:35.298Z,11.96
2018-08-10T18:44:35.365Z,13.01
2018-08-10T18:44:35.416Z,12.97
2018-08-10T18:44:35.503Z,11.39
2018-08-10T18:44:35.527Z,11.9
2018-08-10T18:44:35.627Z,12.08
2018-08-10T18:44:35.669Z,13.29
2018-08-10T18:44:35.746Z,11.91
2018-08-10T18:44:35.835Z,14.44
2018-08-10T18:44:35.893Z,13.26
2018-08-10T18:44:35.944Z,12.41
2018-08-10T18:44:36.048Z,10.34
2018-08-10T18:44:36.095Z,11.75
2018-08-10T18:44:36.146Z,11.12
2018-08-10T18:44:36.231Z,11.48
2018-08-10T18:44:36.282Z,12.61
2018-08-10T18:44:36.360Z,12.53
2018-08-10T18:44:36.437Z,12.72
2018-08-10T18:44:36.493Z,12.18
2018-08-10T18:44:36.538Z,12.48
2018-08-10T18:44:36.606Z,12.99
2018-08-10T18:44:36.726Z,11.91
2018-08-10T18:44:36.844Z,11.5
2018-08-10T18:44:36.946Z,11.95
2018-08-10T18:44:37.029Z,12.17
2018-08-10T18:44:37.101Z,12.38
2018-08-10T18:44:37.123Z,13.05
2018-08-10T18:44:37.176Z,11.64
2018-08-10T18:44:37.248Z,11.57
2018-08-10T18:44:37.310Z,12.45
2018-08-10T18:44:37.382Z,11.86
2018-08-10T18:44:37.431Z,11.47
2018-08-10T18:44:37.497Z,13.35
2018-08-10T18:44:37.566Z,13.37
2018-08-10T18:44:37.608Z,11.13
2018-08-10T18:44:37.671Z,10.09
2018-08-10T18:44:37.792Z,12.61
2018-08-10T18:44:37.835Z,11.91
2018-08-10T18:44:37.920Z,11.19
2018-08-10T18:44:37.964Z,11.36
2018-08-10T18:44:38.012Z,10.2
2018-08-10T18:44:38.088Z,11
2018-08-10T18:44:38.155Z,11.02
2018-08-10T18:44:38.211Z,12.05
2018-08-10T18:44:38.304Z,11.59
2018-08-10T18:44:38.322Z,11
2018-08-10T18:44:38.404Z,10.98
2018-08-10T18:44:38.493Z,9
2018-08-10T18:44:38.582Z,10.86
2018-08-10T18:44:38.659Z,9.92
2018-08-10T18:44:38.736Z,10.27
2018-08-10T18:44:38.773Z,8.06
2018-08-10T18:44:38.841Z,9.66
2018-08-10T18:44:38.918Z,12.45
2018-08-10T18:44:38.967Z,9.23
2018-08-10T18:44:39.006Z,9.37
2018-08-10T18:44:39.106Z,8.51
2018-08-10T18:44:39.167Z,9.71
2018-08-10T18:44:39.196Z,8.41
2018-08-10T18:44:39.265Z,8.67
2018-08-10T18:44:39.369Z,9.08
2018-08-10T18:44:39.440Z,8.77
2018-08-10T18:44:39.565Z,9.37
2018-08-10T18:44:39.659Z,8.38
2018-08-10T18:44:39.749Z,8.56
2018-08-10T18:44:39.855Z,8.44
2018-08-10T18:44:39.958Z,8.19
2018-08-10T18:44:40.069Z,7.66
2018-08-10T18:44:40.170Z,6.72
2018-08-10T18:44:40.266Z,7.56
2018-08-10T18:44:40.361Z,8.93
2018-08-10T18:44:40.480Z,8.25
2018-08-10T18:44:40.550Z,8.91
2018-08-10T18:44:40.715Z,7.99
2018-08-10T18:44:40.800Z,8.09
2018-08-10T18:44:40.992Z,7.22
2018-08-10T18:44:41.076Z,8.14
2018-08-10T18:44:41.111Z,6.84
2018-08-10T18:44:41.200Z,6.95
2018-08-10T18:44:41.264Z,9.21
2018-08-10T18:44:41.328Z,9.33
2018-08-10T18:44:41.418Z,7.63
2018-08-10T18:44:41.487Z,8.03
2018-08-10T18:44:41.565Z,8.5
2018-08-10T18:44:41.614Z,8.48
2018-08-10T18:44:41.721Z,9.19
2018-08-10T18:44:41.760Z,9.81
2018-08-10T18:44:41.804Z,9.68
2018-08-10T18:44:41.862Z,10.08
2018-08-10T18:44:41.948Z,8.61
2018-08-10T18:44:42.000Z,9.45
2018-08-10T18:44:42.039Z,8.91
2018-08-10T18:44:42.156Z,9.79
2018-08-10T18:44:42.203Z,8.83
2018-08-10T18:44:42.283Z,10.16
2018-08-10T18:44:42.402Z,10.43
2018-08-10T18:44:42.438Z,11.43
2018-08-10T18:44:42.510Z,11.55
2018-08-10T18:44:42.569Z,8.96
2018-08-10T18:44:42.659Z,9.27
2018-08-10T18:44:42.698Z,11.28
2018-08-10T18:44:42.745Z,9.97
2018-08-10T18:44:42.830Z,8.39
2018-08-10T18:44:42.904Z,7.92
2018-08-10T18:44:42.945Z,10.21
2018-08-10T18:44:43.017Z,10.16
2018-08-10T18:44:43.076Z,9.86
2018-08-10T18:44:43.175Z,11.48
2018-08-10T18:44:43.253Z,9.49
2018-08-10T18:44:43.329Z,9.65
2018-08-10T18:44:43.395Z,10.94
2018-08-10T18:44:43.465Z,11.08
2018-08-10T18:44:43.511Z,11.64
2018-08-10T18:44:43.594Z,12.87
2018-08-10T18:44:43.660Z,12.59
2018-08-10T18:44:43.685Z,11.2
2018-08-10T18:44:43.782Z,12.7
2018-08-10T18:44:43.831Z,11.74
2018-08-10T18:44:43.891Z,11.15
2018-08-10T18:44:43.958Z,11.54
2018-08-10T18:44:44.050Z,13.65
2018-08-10T18:44:44.164Z,11.76
2018-08-10T18:44:44.216Z,11.42
2018-08-10T18:44:44.283Z,10.02
2018-08-10T18:44:44.352Z,8.94
2018-08-10T18:44:44.419Z,12.69
2018-08-10T18:44:44.464Z,13.3
2018-08-10T18:44:44.536Z,11.76
2018-08-10T18:44:44.587Z,12.7
2018-08-10T18:44:44.649Z,9.9
2018-08-10T18:44:44.700Z,11.8
2018-08-10T18:44:44.777Z,11.57
2018-08-10T18:44:44.852Z,10.41
2018-08-10T18:44:44.931Z,10.54
2018-08-10T18:44:45.050Z,13.59
2018-08-10T18:44:45.147Z,13.12
2018-08-10T18:44:45.232Z,12.45
2018-08-10T18:44:45.289Z,10.38
2018-08-10T18:44:45.354Z,10.62
2018-08-10T18:44:45.398Z,12.16
2018-08-10T18:44:45.445Z,11.72
2018-08-10T18:44:45.536Z,13.13
2018-08-10T18:44:45.609Z,11.39
2018-08-10T18:44:45.650Z,10.68
2018-08-10T18:44:45.719Z,11.3
2018-08-10T18:44:45.770Z,9.74
2018-08-10T18:44:45.843Z,11.6
2018-08-10T18:44:45.904Z,9.95
2018-08-10T18:44:46.022Z,10.09
2018-08-10T18:44:46.072Z,10.47
2018-08-10T18:44:46.130Z,10.34
2018-08-10T18:44:46.180Z,11.82
2018-08-10T18:44:46.271Z,9.81
2018-08-10T18:44:46.329Z,12.88
2018-08-10T18:44:46.387Z,9.58
2018-08-10T18:44:46.435Z,11.93
2018-08-10T18:44:46.496Z,11.88
2018-08-10T18:44:46.560Z,11.12
2018-08-10T18:44:46.663Z,10.22
2018-08-10T18:44:46.686Z,9.3
2018-08-10T18:44:46.790Z,12.48
2018-08-10T18:44:46.864Z,12.14
2018-08-10T18:44:46.919Z,11.15
2018-08-10T18:44:46.976Z,15.05
2018-08-10T18:44:47.037Z,9.88
2018-08-10T18:44:47.113Z,10.36
2018-08-10T18:44:47.153Z,12.67
2018-08-10T18:44:47.247Z,11.37
2018-08-10T18:44:47.291Z,10.82
2018-08-10T18:44:47.366Z,10.86
2018-08-10T18:44:47.439Z,11.32
2018-08-10T18:44:47.500Z,10.84
2018-08-10T18:44:47.612Z,10.35
2018-08-10T18:44:47.682Z,10.09
2018-08-10T18:44:47.735Z,11.45
2018-08-10T18:44:47.788Z,9.88
2018-08-10T18:44:47.850Z,10.57
2018-08-10T18:44:47.963Z,12.09
2018-08-10T18:44:48.233Z,12.76
2018-08-10T18:44:48.285Z,12.41
2018-08-10T18:44:48.377Z,11.45
2018-08-10T18:44:48.460Z,11.21
2018-08-10T18:44:48.516Z,10.3
2018-08-10T18:44:48.589Z,11.52
2018-08-10T18:44:48.660Z,10.95
2018-08-10T18:44:48.716Z,9.14
2018-08-10T18:44:48.809Z,10.22
2018-08-10T18:44:48.886Z,11.23
2018-08-10T18:44:48.940Z,12.38
2018-08-10T18:44:49.024Z,10.18
2018-08-10T18:44:49.082Z,10.87
2018-08-10T18:44:49.140Z,9.19
2018-08-10T18:44:49.225Z,11.26
2018-08-10T18:44:49.299Z,10.83
2018-08-10T18:44:49.429Z,9.88
2018-08-10T18:44:49.446Z,10.97
2018-08-10T18:44:49.524Z,12.16
2018-08-10T18:44:49.594Z,10.09
2018-08-10T18:44:49.640Z,9.35
2018-08-10T18:44:49.728Z,8.99
2018-08-10T18:44:49.832Z,10.13
2018-08-10T18:44:49.851Z,9.78
2018-08-10T18:44:49.895Z,9.53
2018-08-10T18:44:49.959Z,8.93
2018-08-10T18:44:50.087Z,11.86
2018-08-10T18:44:50.125Z,11.56
2018-08-10T18:44:50.201Z,9.95
2018-08-10T18:44:50.289Z,10.14
2018-08-10T18:44:50.321Z,10.11
2018-08-10T18:44:50.438Z,9.33
2018-08-10T18:44:50.455Z,8.68
2018-08-10T18:44:50.583Z,9.16
2018-08-10T18:44:50.596Z,9.29
2018-08-10T18:44:50.659Z,9.38
2018-08-10T18:44:50.724Z,11.15
2018-08-10T18:44:50.865Z,9.84
2018-08-10T18:44:50.902Z,10.58
2018-08-10T18:44:51.005Z,10
2018-08-10T18:44:51.130Z,10.59
2018-08-10T18:44:51.232Z,9.64
2018-08-10T18:44:51.366Z,10.19
2018-08-10T18:44:51.417Z,9.67
2018-08-10T18:44:51.543Z,10.35
2018-08-10T18:44:51.622Z,12.43
2018-08-10T18:44:51.712Z,10.24
2018-08-10T18:44:51.774Z,12.23
2018-08-10T18:44:51.853Z,9.72
2018-08-10T18:44:51.893Z,11.59
2018-08-10T18:44:51.987Z,11.05
2018-08-10T18:44:52.028Z,10.69
2018-08-10T18:44:52.090Z,10.59
2018-08-10T18:44:52.163Z,11.46
2018-08-10T18:44:52.210Z,12.26
2018-08-10T18:44:52.264Z,11.44
2018-08-10T18:44:52.340Z,10.61
2018-08-10T18:44:52.416Z,10.66
2018-08-10T18:44:52.502Z,10.09
2018-08-10T18:44:52.561Z,11.71
2018-08-10T18:44:52.639Z,11.44
2018-08-10T18:44:52.692Z,12.6
2018-08-10T18:44:52.775Z,9.95
2018-08-10T18:44:52.844Z,11.84
2018-08-10T18:44:52.893Z,8.86
2018-08-10T18:44:52.961Z,11.37
2018-08-10T18:44:53.014Z,11.18
2018-08-10T18:44:53.083Z,9.9
2018-08-10T18:44:53.154Z,10.53
2018-08-10T18:44:53.246Z,12.64
2018-08-10T18:44:53.333Z,13.11
2018-08-10T18:44:53.468Z,10.72
2018-08-10T18:44:53.557Z,8.89
2018-08-10T18:44:53.668Z,9.76
2018-08-10T18:44:53.731Z,9
2018-08-10T18:44:53.851Z,9.72
2018-08-10T18:44:53.959Z,8.87
2018-08-10T18:44:54.085Z,10.66
2018-08-10T18:44:54.140Z,10.53
2018-08-10T18:44:54.173Z,11.04
2018-08-10T18:44:54.240Z,10.8
2018-08-10T18:44:54.325Z,11.22
2018-08-10T18:44:54.385Z,11.46
2018-08-10T18:44:54.450Z,11.56
2018-08-10T18:44:54.490Z,11.57
2018-08-10T18:44:54.560Z,12.44
2018-08-10T18:44:54.612Z,11.06
2018-08-10T18:44:54.691Z,11.8
2018-08-10T18:44:54.774Z,9
2018-08-10T18:44:54.909Z,9.9
2018-08-10T18:44:54.948Z,11.25
2018-08-10T18:44:55.028Z,12.25
2018-08-10T18:44:55.096Z,10.61
2018-08-10T18:44:55.160Z,11.24
2018-08-10T18:44:55.231Z,10.04
2018-08-10T18:44:55.296Z,10.07
2018-08-10T18:44:55.360Z,10.46
2018-08-10T18:44:55.421Z,10.11
2018-08-10T18:44:55.473Z,11.08
2018-08-10T18:44:55.526Z,10.98
2018-08-10T18:44:55.592Z,9.7
2018-08-10T18:44:55.700Z,11.64
2018-08-10T18:44:55.771Z,11.2
2018-08-10T18:44:55.882Z,12.63
2018-08-10T18:44:55.957Z,10.55
2018-08-10T18:44:56.065Z,10.32
2018-08-10T18:44:56.080Z,13.1
2018-08-10T18:44:56.135Z,12.87
2018-08-10T18:44:56.228Z,11.35
2018-08-10T18:44:56.284Z,10
2018-08-10T18:44:56.348Z,11.14
2018-08-10T18:44:56.456Z,10.37
2018-08-10T18:44:56.511Z,12.54
2018-08-10T18:44:56.543Z,10.78
2018-08-10T18:44:56.607Z,10.53
2018-08-10T18:44:56.665Z,10.51
2018-08-10T18:44:56.771Z,10.2
2018-08-10T18:44:56.873Z,11.55
2018-08-10T18:44:56.935Z,10.84
2018-08-10T18:44:56.987Z,12.45
2018-08-10T18:44:57.040Z,10.3
2018-08-10T18:44:57.092Z,9.81
2018-08-10T18:44:57.168Z,10.9
2018-08-10T18:44:57.220Z,10.41
2018-08-10T18:44:57.273Z,10.49
2018-08-10T18:44:57.347Z,10.46
2018-08-10T18:44:57.415Z,10.62
2018-08-10T18:44:57.450Z,11.31
2018-08-10T18:44:57.557Z,9.85
2018-08-10T18:44:57.642Z,12.01
2018-08-10T18:44:57.695Z,10.94
2018-08-10T18:44:57.772Z,10.39
2018-08-10T18:44:57.826Z,11.01
2018-08-10T18:44:57.887Z,11.69
2018-08-10T18:44:57.952Z,9.89
2018-08-10T18:44:58.018Z,10.6
2018-08-10T18:44:58.064Z,10.56
2018-08-10T18:44:58.149Z,10.34
2018-08-10T18:44:58.181Z,10.14
2018-08-10T18:44:58.256Z,11.52
2018-08-10T18:44:58.354Z,12.47
2018-08-10T18:44:58.404Z,11.6
2018-08-10T18:44:58.472Z,11.44
2018-08-10T18:44:58.533Z,11.44
2018-08-10T18:44:58.583Z,9.95
2018-08-10T18:44:58.674Z,10.73
2018-08-10T18:44:58.735Z,8.95
2018-08-10T18:44:58.786Z,10.72
2018-08-10T18:44:58.833Z,10.2
2018-08-10T18:44:58.942Z,11.78
2018-08-10T18:44:58.958Z,10.31
2018-08-10T18:44:59.048Z,10.7
2018-08-10T18:44:59.087Z,10.69
2018-08-10T18:44:59.253Z,10.57
2018-08-10T18:44:59.268Z,11.6
2018-08-10T18:44:59.361Z,10.01
2018-08-10T18:44:59.421Z,9.79
2018-08-10T18:44:59.491Z,10.97
2018-08-10T18:44:59.555Z,10.62
2018-08-10T18:44:59.590Z,10.46
2018-08-10T18:44:59.646Z,12.81
2018-08-10T18:44:59.725Z,11.21
2018-08-10T18:44:59.779Z,11.49